Dades meteomassalio
Diari Summary for Octubre 18, 2017 Units:  Metric    English   Both
« Previous Day
Next Day »
Diari Semanal Mensual Anual Personalitzat
  Maxima: Minima: Mijana:
Temperatura: 21.7 °C 12.2 °C 15.8 °C
Rosada: 17.3 °C 10.9 °C 13.2 °C
Humitat: 93 % 65 % 85 %
Velocitat del vent: 31.5 km/h 0.0 km/h 5.9 km/h
Racha vent: 31.5 km/h - -
Vent:- - East
Pressio: 1020.9 hPa 1010.0 hPa -
Pluja: 4.3 mm    
Historical Graphs
 
 
Tabular Data for Octubre 18, 2017
Time Temperature Dew Point Pressure Wind Wind Speed Wind Gust Humidity Rainfall Rate (Hourly) solar Conditions
00:01 16.1 °C 12.3 °C 1020.9 hPa Calm     78 % 0.0 mm 0.0 W/m2 RA
00:06 16.1 °C 12.3 °C 1020.5 hPa Calm     78 % 0.0 mm 0.0 W/m2 CLR
00:11 16.1 °C 12.3 °C 1020.5 hPa Calm     78 % 0.0 mm 0.0 W/m2 CLR
00:16 16.1 °C 12.4 °C 1020.5 hPa Calm     79 % 0.0 mm 0.0 W/m2 CLR
00:21 16.1 °C 12.4 °C 1020.5 hPa Calm     79 % 0.0 mm 0.0 W/m2 CLR
00:26 16.1 °C 12.4 °C 1020.2 hPa Calm     79 % 0.0 mm 0.0 W/m2 CLR
00:31 16.1 °C 12.4 °C 1020.2 hPa Calm     79 % 0.0 mm 0.0 W/m2 CLR
00:36 16.1 °C 12.4 °C 1020.2 hPa Calm     79 % 0.0 mm 0.0 W/m2 CLR
00:41 16.1 °C 12.7 °C 1020.2 hPa NW 5.6 km/h   80 % 0.0 mm 0.0 W/m2 CLR
00:46 16.1 °C 12.7 °C 1020.2 hPa Calm     80 % 0.0 mm 0.0 W/m2 CLR
00:51 16.1 °C 12.7 °C 1019.9 hPa Calm     80 % 0.0 mm 0.0 W/m2 CLR
00:56 16.1 °C 12.8 °C 1020.2 hPa Calm     81 % 0.0 mm 0.0 W/m2 CLR
01:01 16.1 °C 12.8 °C 1020.2 hPa Calm     81 % 0.0 mm 0.0 W/m2 CLR
01:06 16.1 °C 13.1 °C 1020.2 hPa Calm     82 % 0.0 mm 0.0 W/m2 CLR
01:11 16.1 °C 13.1 °C 1019.9 hPa Calm     82 % 0.0 mm 0.0 W/m2 CLR
01:16 16.1 °C 13.1 °C 1019.9 hPa Calm     82 % 0.0 mm 0.0 W/m2 CLR
01:21 16.1 °C 13.1 °C 1019.9 hPa Calm     82 % 0.0 mm 0.0 W/m2 CLR
01:26 16.1 °C 13.1 °C 1019.9 hPa Calm     82 % 0.3 mm 0.0 W/m2 RA
01:31 16.1 °C 13.1 °C 1019.9 hPa Calm     82 % 0.3 mm 0.0 W/m2 CLR
01:37 16.1 °C 13.2 °C 1019.9 hPa Calm     83 % 0.3 mm 0.0 W/m2 CLR
01:42 15.6 °C 12.9 °C 1020.2 hPa Calm     84 % 0.3 mm 0.0 W/m2 CLR
01:47 15.6 °C 12.9 °C 1019.9 hPa Calm     84 % 0.3 mm 0.0 W/m2 CLR
01:52 16.1 °C 13.6 °C 1019.9 hPa Calm     85 % 0.5 mm 0.0 W/m2 RA
01:57 16.1 °C 13.6 °C 1019.9 hPa Calm     85 % 0.5 mm 0.0 W/m2 CLR
02:02 15.6 °C 13.1 °C 1019.9 hPa Calm     85 % 0.5 mm 0.0 W/m2 CLR
02:07 15.6 °C 13.1 °C 1019.5 hPa NE 5.6 km/h 5.6 km/h 85 % 0.5 mm 0.0 W/m2 CLR
02:12 15.6 °C 13.1 °C 1019.5 hPa Calm     85 % 0.5 mm 0.0 W/m2 CLR
02:17 15.6 °C 13.1 °C 1019.5 hPa Calm     85 % 0.5 mm 0.0 W/m2 CLR
02:22 15.6 °C 13.2 °C 1019.9 hPa Calm     86 % 0.5 mm 0.0 W/m2 CLR
02:27 15.6 °C 13.1 °C 1019.5 hPa Calm     85 % 0.3 mm 0.0 W/m2 CLR
02:32 15.6 °C 13.1 °C 1019.5 hPa NE 7.4 km/h 7.4 km/h 85 % 0.3 mm 0.0 W/m2 CLR
02:37 15.0 °C 12.5 °C 1019.5 hPa Calm     85 % 0.3 mm 0.0 W/m2 CLR
02:42 15.0 °C 12.7 °C 1019.5 hPa Calm     86 % 0.3 mm 0.0 W/m2 CLR
02:47 15.0 °C 12.7 °C 1019.5 hPa Calm     86 % 0.3 mm 0.0 W/m2 CLR
02:52 15.0 °C 12.8 °C 1019.2 hPa Calm     87 % 0.0 mm 0.0 W/m2 CLR
02:57 15.0 °C 12.8 °C 1019.2 hPa Calm     87 % 0.3 mm 0.0 W/m2 RA
03:02 15.0 °C 12.8 °C 1019.2 hPa Calm     87 % 0.3 mm 0.0 W/m2
03:07 15.0 °C 12.8 °C 1019.2 hPa Calm     87 % 0.3 mm 0.0 W/m2 CLR
03:12 15.0 °C 12.8 °C 1019.2 hPa Calm     87 % 0.3 mm 0.0 W/m2 CLR
03:17 15.6 °C 13.6 °C 1018.8 hPa Calm     88 % 0.3 mm 0.0 W/m2 CLR
03:22 15.6 °C 13.6 °C 1018.8 hPa Calm     88 % 0.3 mm 0.0 W/m2 CLR
03:27 15.6 °C 13.7 °C 1018.8 hPa Calm     89 % 0.3 mm 0.0 W/m2 CLR
03:32 15.0 °C 13.2 °C 1018.8 hPa Calm     89 % 0.3 mm 0.0 W/m2 CLR
03:37 15.6 °C 13.7 °C 1018.8 hPa Calm     89 % 0.3 mm 0.0 W/m2 CLR
03:42 16.1 °C 14.3 °C 1018.5 hPa Calm     89 % 0.3 mm 0.0 W/m2 CLR
03:47 15.6 °C 13.7 °C 1018.5 hPa Calm     89 % 0.3 mm 0.0 W/m2 CLR
03:52 15.6 °C 13.7 °C 1018.5 hPa Calm     89 % 0.3 mm 0.0 W/m2 CLR
03:57 15.6 °C 13.7 °C 1018.5 hPa Calm     89 % 0.0 mm 0.0 W/m2 CLR
04:02 15.6 °C 13.7 °C 1018.2 hPa Calm     89 % 0.0 mm 0.0 W/m2 CLR
04:07 15.6 °C 13.7 °C 1018.2 hPa Calm     89 % 0.0 mm 0.0 W/m2 CLR
04:12 15.0 °C 13.2 °C 1018.2 hPa Calm     89 % 0.0 mm 0.0 W/m2 CLR
04:17 15.0 °C 13.2 °C 1018.2 hPa Calm     89 % 0.0 mm 0.0 W/m2 CLR
04:22 15.0 °C 13.2 °C 1018.2 hPa Calm     89 % 0.0 mm 0.0 W/m2 CLR
04:27 15.0 °C 13.2 °C 1018.2 hPa Calm     89 % 0.0 mm 0.0 W/m2 CLR
04:32 15.0 °C 13.2 °C 1018.2 hPa Calm     89 % 0.0 mm 0.0 W/m2 CLR
04:37 15.0 °C 13.4 °C 1017.8 hPa Calm     90 % 0.0 mm 0.0 W/m2 CLR
04:42 15.0 °C 13.4 °C 1017.8 hPa Calm     90 % 0.0 mm 0.0 W/m2 CLR
04:47 15.0 °C 13.4 °C 1017.8 hPa Calm     90 % 0.0 mm 0.0 W/m2 CLR
04:52 15.0 °C 13.4 °C 1017.8 hPa Calm     90 % 0.0 mm 0.0 W/m2 CLR
04:57 15.0 °C 13.4 °C 1017.5 hPa Calm     90 % 0.0 mm 0.0 W/m2 CLR
05:02 15.0 °C 13.4 °C 1017.5 hPa Calm     90 % 0.0 mm 0.0 W/m2 CLR
05:07 15.0 °C 13.4 °C 1017.5 hPa Calm     90 % 0.0 mm 0.0 W/m2 CLR
05:12 14.4 °C 13.0 °C 1017.5 hPa Calm     91 % 0.0 mm 0.0 W/m2 CLR
05:18 14.4 °C 13.0 °C 1017.5 hPa Calm     91 % 0.0 mm 0.0 W/m2 CLR
05:22 14.4 °C 13.0 °C 1017.5 hPa Calm     91 % 0.0 mm 0.0 W/m2 CLR
05:23 14.4 °C 13.0 °C 1017.5 hPa Calm     91 % 0.0 mm 0.0 W/m2 CLR
05:25 14.4 °C 13.0 °C 1017.2 hPa Calm     91 % 0.0 mm 0.0 W/m2 CLR
05:26 14.4 °C 13.0 °C 1017.2 hPa Calm     91 % 0.0 mm 0.0 W/m2 CLR
05:29 14.4 °C 13.0 °C 1017.2 hPa Calm     91 % 0.0 mm 0.0 W/m2 CLR
05:31 14.4 °C 13.0 °C 1017.2 hPa Calm     91 % 0.0 mm 0.0 W/m2 CLR
05:36 14.4 °C 13.0 °C 1017.2 hPa Calm     91 % 0.0 mm 0.0 W/m2 CLR
05:40 14.4 °C 13.0 °C 1017.2 hPa Calm     91 % 0.0 mm 0.0 W/m2 CLR
05:45 13.9 °C 12.4 °C 1017.2 hPa Calm     91 % 0.0 mm 0.0 W/m2 CLR
05:50 13.9 °C 12.4 °C 1017.2 hPa Calm     91 % 0.0 mm 0.0 W/m2 CLR
05:55 13.9 °C 12.4 °C 1017.2 hPa Calm     91 % 0.0 mm 0.0 W/m2 CLR
06:00 13.9 °C 12.4 °C 1016.8 hPa Calm     91 % 0.0 mm 0.0 W/m2 CLR
06:05 13.9 °C 12.4 °C 1016.8 hPa Calm     91 % 0.0 mm 0.0 W/m2 CLR
06:10 13.9 °C 12.4 °C 1016.8 hPa Calm     91 % 0.0 mm 0.0 W/m2 CLR
06:15 13.3 °C 11.9 °C 1016.8 hPa Calm     91 % 0.0 mm 0.0 W/m2 CLR
06:20 13.9 °C 12.4 °C 1016.8 hPa Calm     91 % 0.0 mm 0.0 W/m2 CLR
06:25 13.9 °C 12.6 °C 1016.8 hPa Calm     92 % 0.0 mm 0.0 W/m2 CLR
06:30 13.9 °C 12.4 °C 1016.8 hPa Calm     91 % 0.0 mm 0.0 W/m2 CLR
06:35 13.9 °C 12.4 °C 1016.8 hPa Calm     91 % 0.0 mm 0.0 W/m2 CLR
06:40 13.9 °C 12.4 °C 1016.8 hPa Calm     91 % 0.0 mm 0.0 W/m2 CLR
06:45 13.9 °C 12.6 °C 1016.5 hPa Calm     92 % 0.0 mm 0.0 W/m2 CLR
06:50 13.9 °C 12.6 °C 1016.5 hPa Calm     92 % 0.0 mm 0.0 W/m2 CLR
06:55 13.9 °C 12.6 °C 1016.5 hPa Calm     92 % 0.0 mm 0.0 W/m2 CLR
07:00 13.9 °C 12.6 °C 1016.5 hPa Calm     92 % 0.0 mm 0.0 W/m2 CLR
07:05 13.9 °C 12.6 °C 1016.5 hPa Calm     92 % 0.0 mm 0.0 W/m2 CLR
07:10 13.9 °C 12.6 °C 1016.1 hPa Calm     92 % 0.0 mm 0.0 W/m2 CLR
07:15 13.3 °C 12.1 °C 1016.1 hPa Calm     92 % 0.0 mm 0.0 W/m2 CLR
07:20 13.3 °C 12.1 °C 1016.1 hPa Calm     92 % 0.0 mm 0.0 W/m2 CLR
07:25 13.3 °C 12.1 °C 1016.1 hPa Calm     92 % 0.0 mm 0.0 W/m2 CLR
07:30 13.3 °C 12.1 °C 1016.1 hPa Calm     92 % 0.0 mm 0.0 W/m2 CLR
07:35 12.8 °C 11.5 °C 1016.1 hPa Calm     92 % 0.0 mm 0.0 W/m2 CLR
07:40 12.8 °C 11.5 °C 1016.1 hPa Calm     92 % 0.0 mm 0.0 W/m2 CLR
07:45 12.8 °C 11.5 °C 1016.1 hPa Calm     92 % 0.0 mm 0.0 W/m2 CLR
07:50 12.8 °C 11.5 °C 1016.1 hPa Calm     92 % 0.0 mm 0.0 W/m2 CLR
07:55 12.8 °C 11.5 °C 1016.1 hPa Calm     92 % 0.0 mm 0.0 W/m2 CLR
08:00 12.8 °C 11.5 °C 1015.8 hPa Calm     92 % 0.0 mm 0.0 W/m2 CLR
08:05 12.2 °C 10.9 °C 1015.8 hPa Calm     92 % 0.0 mm 0.0 W/m2 OVC
08:10 12.2 °C 10.9 °C 1015.8 hPa Calm     92 % 0.0 mm 0.0 W/m2 OVC
08:15 12.2 °C 10.9 °C 1015.8 hPa Calm     92 % 0.0 mm 0.0 W/m2 OVC
08:20 12.2 °C 10.9 °C 1015.8 hPa Calm     92 % 0.0 mm 5.0 W/m2 OVC
08:25 12.2 °C 10.9 °C 1015.8 hPa Calm     92 % 0.0 mm 9.0 W/m2 BKN
08:30 12.2 °C 10.9 °C 1015.8 hPa Calm     92 % 0.0 mm 18.0 W/m2 BKN
08:35 12.2 °C 10.9 °C 1015.8 hPa Calm     92 % 0.0 mm 19.0 W/m2 BKN
08:40 12.2 °C 10.9 °C 1015.8 hPa Calm     92 % 0.0 mm 25.0 W/m2 BKN
08:45 12.2 °C 10.9 °C 1015.8 hPa Calm     92 % 0.0 mm 28.0 W/m2 BKN
08:50 12.2 °C 10.9 °C 1015.8 hPa Calm     92 % 0.0 mm 33.0 W/m2 BKN
08:55 12.2 °C 10.9 °C 1015.8 hPa Calm     92 % 0.0 mm 42.0 W/m2 BKN
09:00 12.8 °C 11.5 °C 1015.8 hPa Calm     92 % 0.0 mm 56.0 W/m2 SCT
09:05 12.8 °C 11.5 °C 1015.8 hPa Calm     92 % 0.0 mm 51.0 W/m2 SCT
09:10 12.8 °C 11.7 °C 1015.8 hPa Calm     93 % 0.0 mm 77.0 W/m2 FEW
09:15 12.8 °C 11.7 °C 1015.8 hPa Calm     93 % 0.0 mm 93.0 W/m2 FEW
09:20 12.8 °C 11.7 °C 1015.5 hPa Calm     93 % 0.0 mm 105.0 W/m2 CLR
09:25 13.3 °C 12.2 °C 1015.5 hPa NNE 1.9 km/h 1.9 km/h 93 % 0.0 mm 120.0 W/m2 CLR
09:30 13.3 °C 12.1 °C 1015.8 hPa Calm     92 % 0.0 mm 139.0 W/m2 CLR
09:35 13.3 °C 12.1 °C 1015.5 hPa Calm     92 % 0.0 mm 121.0 W/m2 CLR
09:40 13.9 °C 12.4 °C 1015.5 hPa Calm     91 % 0.0 mm 162.0 W/m2 CLR
09:45 13.9 °C 12.3 °C 1015.5 hPa Calm     90 % 0.0 mm 127.0 W/m2 CLR
09:50 14.4 °C 12.7 °C 1015.5 hPa Calm     89 % 0.0 mm 207.0 W/m2 CLR
09:55 14.4 °C 12.7 °C 1015.5 hPa Calm     89 % 0.0 mm 197.0 W/m2 CLR
10:00 15.0 °C 12.8 °C 1015.5 hPa Calm     87 % 0.0 mm 178.0 W/m2 CLR
10:05 15.0 °C 12.3 °C 1015.5 hPa NE 9.7 km/h 9.7 km/h 84 % 0.0 mm 109.0 W/m2 CLR
10:10 15.6 °C 12.3 °C 1015.1 hPa NE 11.1 km/h 11.1 km/h 81 % 0.0 mm 260.0 W/m2 CLR
10:15 15.6 °C 12.1 °C 1015.1 hPa East 5.6 km/h 5.6 km/h 80 % 0.0 mm 202.0 W/m2 CLR
10:20 16.1 °C 11.7 °C 1015.1 hPa East 18.5 km/h 18.5 km/h 75 % 0.0 mm 163.0 W/m2 CLR
10:25 16.7 °C 11.4 °C 1015.1 hPa ESE 20.4 km/h 20.4 km/h 71 % 0.0 mm 128.0 W/m2 CLR
10:30 17.8 °C 12.2 °C 1014.8 hPa ESE 16.7 km/h 16.7 km/h 70 % 0.0 mm 123.0 W/m2 CLR
10:35 17.8 °C 12.2 °C 1014.8 hPa East 18.5 km/h 18.5 km/h 70 % 0.0 mm 100.0 W/m2 CLR
10:40 18.3 °C 12.6 °C 1014.8 hPa ENE 20.4 km/h 20.4 km/h 69 % 0.0 mm 139.0 W/m2 CLR
10:45 18.9 °C 13.3 °C 1014.8 hPa East 14.8 km/h 14.8 km/h 70 % 0.0 mm 142.0 W/m2 CLR
10:50 18.9 °C 13.3 °C 1014.8 hPa East 22.2 km/h 22.2 km/h 70 % 0.0 mm 137.0 W/m2 CLR
10:51 18.9 °C 13.3 °C 1014.8 hPa ENE 22.2 km/h 22.2 km/h 70 % 0.0 mm 137.0 W/m2 CLR
10:56 19.4 °C 13.8 °C 1014.8 hPa ENE 20.4 km/h 20.4 km/h 70 % 0.0 mm 156.0 W/m2 CLR
11:01 19.4 °C 13.8 °C 1014.8 hPa ENE 22.2 km/h 22.2 km/h 70 % 0.0 mm 169.0 W/m2 CLR
11:06 19.4 °C 13.8 °C 1014.8 hPa ENE 14.8 km/h 14.8 km/h 70 % 0.0 mm 181.0 W/m2 CLR
11:11 19.4 °C 13.8 °C 1014.8 hPa ENE 9.3 km/h 9.3 km/h 70 % 0.0 mm 197.0 W/m2 CLR
11:16 20.0 °C 14.8 °C 1014.8 hPa ENE 11.1 km/h 11.1 km/h 72 % 0.0 mm 237.0 W/m2 CLR
11:21 20.0 °C 14.8 °C 1015.1 hPa ENE 18.5 km/h 18.5 km/h 72 % 0.0 mm 313.0 W/m2 CLR
11:26 20.6 °C 15.3 °C 1014.8 hPa ENE 18.5 km/h 18.5 km/h 72 % 0.0 mm 353.0 W/m2 CLR
11:31 20.6 °C 15.3 °C 1014.8 hPa ENE 20.4 km/h 20.4 km/h 72 % 0.0 mm 258.0 W/m2 CLR
11:33 20.6 °C 15.3 °C 1014.8 hPa ENE 18.5 km/h 18.5 km/h 72 % 0.0 mm 318.0 W/m2 CLR
11:53 20.6 °C 15.3 °C 1014.8 hPa ENE 18.5 km/h 18.5 km/h 72 % 0.0 mm 318.0 W/m2 CLR
11:58 20.0 °C 15.4 °C 1014.1 hPa NE 24.1 km/h 24.1 km/h 75 % 0.0 mm 188.0 W/m2 CLR
12:03 20.0 °C 15.0 °C 1014.1 hPa NE 29.6 km/h 29.6 km/h 73 % 0.0 mm 251.0 W/m2 CLR
12:08 20.6 °C 15.6 °C 1014.1 hPa NE 25.9 km/h 25.9 km/h 73 % 0.0 mm 229.0 W/m2 CLR
12:13 20.6 °C 15.8 °C 1014.1 hPa ENE 14.8 km/h 14.8 km/h 74 % 0.0 mm 211.0 W/m2 CLR
12:18 21.1 °C 16.3 °C 1014.1 hPa ENE 25.9 km/h 25.9 km/h 74 % 0.0 mm 246.0 W/m2 CLR
12:23 21.1 °C 16.1 °C 1013.8 hPa NE 29.0 km/h 29.0 km/h 73 % 0.0 mm 566.0 W/m2 CLR
12:28 21.1 °C 16.1 °C 1013.8 hPa NE 27.8 km/h 27.8 km/h 73 % 0.0 mm 239.0 W/m2 CLR
12:33 21.1 °C 16.1 °C 1013.8 hPa ENE 29.6 km/h 29.6 km/h 73 % 0.0 mm 186.0 W/m2 CLR
12:38 20.6 °C 15.8 °C 1013.8 hPa ENE 20.4 km/h 20.4 km/h 74 % 0.0 mm 95.0 W/m2 CLR
12:43 20.0 °C 15.4 °C 1013.8 hPa ENE 27.8 km/h 27.8 km/h 75 % 0.0 mm 44.0 W/m2 FEW
12:48 20.0 °C 15.8 °C 1013.4 hPa NE 24.1 km/h 24.1 km/h 77 % 0.0 mm 47.0 W/m2 SCT
12:53 19.4 °C 15.7 °C 1013.4 hPa NE 29.6 km/h 29.6 km/h 79 % 0.0 mm 60.0 W/m2 SCT
12:58 18.9 °C 15.6 °C 1013.4 hPa ENE 20.4 km/h 20.4 km/h 81 % 0.0 mm 60.0 W/m2 SCT
13:04 18.9 °C 15.6 °C 1013.8 hPa East 27.8 km/h 27.8 km/h 81 % 0.0 mm 60.0 W/m2 SCT
13:09 18.3 °C 15.0 °C 1013.8 hPa East 20.4 km/h 20.4 km/h 81 % 0.0 mm 67.0 W/m2 SCT
13:14 18.3 °C 15.2 °C 1013.4 hPa ENE 20.4 km/h 20.4 km/h 82 % 0.0 mm 74.0 W/m2 FEW
13:19 18.3 °C 15.4 °C 1013.4 hPa NE 22.2 km/h 22.2 km/h 83 % 0.0 mm 95.0 W/m2 FEW
13:24 18.3 °C 15.4 °C 1013.4 hPa NNE 24.1 km/h 24.1 km/h 83 % 0.0 mm 158.0 W/m2 CLR
13:29 18.3 °C 15.2 °C 1013.4 hPa NNE 18.5 km/h 18.5 km/h 82 % 0.0 mm 487.0 W/m2 CLR
13:34 18.9 °C 15.7 °C 1013.4 hPa NNE 14.8 km/h 14.8 km/h 82 % 0.0 mm 786.0 W/m2 CLR
13:39 18.9 °C 15.2 °C 1013.4 hPa ENE 31.5 km/h 31.5 km/h 79 % 0.0 mm 348.0 W/m2 CLR
13:44 18.9 °C 15.2 °C 1013.1 hPa NE 27.4 km/h 27.4 km/h 79 % 0.0 mm 232.0 W/m2 CLR
13:49 18.3 °C 14.6 °C 1013.1 hPa NE 27.8 km/h 27.8 km/h 79 % 0.0 mm 257.0 W/m2 CLR
13:54 18.9 °C 15.2 °C 1012.8 hPa East 18.5 km/h 18.5 km/h 79 % 0.0 mm 267.0 W/m2 CLR
13:59 18.9 °C 14.9 °C 1012.8 hPa ENE 22.5 km/h 22.5 km/h 78 % 0.0 mm 274.0 W/m2 CLR
14:04 18.9 °C 15.2 °C 1012.8 hPa ENE 31.5 km/h 31.5 km/h 79 % 0.0 mm 225.0 W/m2 CLR
14:09 18.9 °C 15.2 °C 1012.4 hPa NE 25.9 km/h 25.9 km/h 79 % 0.0 mm 169.0 W/m2 CLR
14:14 18.9 °C 15.2 °C 1012.4 hPa ENE 18.5 km/h 18.5 km/h 79 % 0.0 mm 264.0 W/m2 CLR
14:19 18.9 °C 15.2 °C 1012.4 hPa ENE 22.2 km/h 22.2 km/h 79 % 0.0 mm 172.0 W/m2 CLR
14:24 18.9 °C 15.2 °C 1012.1 hPa NE 14.8 km/h 14.8 km/h 79 % 0.0 mm 174.0 W/m2 CLR
14:29 18.9 °C 15.4 °C 1012.4 hPa NE 20.9 km/h 20.9 km/h 80 % 0.0 mm 302.0 W/m2 CLR
14:34 19.4 °C 16.1 °C 1012.1 hPa ENE 16.7 km/h 16.7 km/h 81 % 0.0 mm 663.0 W/m2 CLR
14:39 20.0 °C 16.6 °C 1011.7 hPa NE 9.3 km/h 9.3 km/h 81 % 0.0 mm 608.0 W/m2 CLR
14:44 20.6 °C 17.0 °C 1011.7 hPa NE 13.0 km/h 13.0 km/h 80 % 0.0 mm 478.0 W/m2 CLR
14:49 20.6 °C 16.6 °C 1011.4 hPa NE 14.8 km/h 14.8 km/h 78 % 0.0 mm 517.0 W/m2 CLR
14:54 21.7 °C 17.3 °C 1011.4 hPa ENE 14.5 km/h 14.5 km/h 76 % 0.0 mm 517.0 W/m2 CLR
14:59 21.7 °C 16.4 °C 1011.1 hPa NE 16.7 km/h 16.7 km/h 72 % 0.0 mm 246.0 W/m2 CLR
15:04 21.7 °C 16.4 °C 1010.7 hPa NNE 14.8 km/h 14.8 km/h 72 % 0.0 mm 125.0 W/m2 CLR
15:09 21.1 °C 15.7 °C 1010.7 hPa NE 14.8 km/h 14.8 km/h 71 % 0.0 mm 102.0 W/m2 CLR
15:14 20.6 °C 15.1 °C 1010.7 hPa Calm     71 % 0.0 mm 113.0 W/m2 CLR
15:19 20.6 °C 15.3 °C 1010.7 hPa NE 8.0 km/h 8.0 km/h 72 % 0.0 mm 104.0 W/m2 CLR
15:24 20.6 °C 15.3 °C 1011.1 hPa ENE 9.3 km/h 9.3 km/h 72 % 0.0 mm 79.0 W/m2 CLR
15:29 20.6 °C 14.7 °C 1011.1 hPa ESE 6.4 km/h 6.4 km/h 69 % 0.0 mm 65.0 W/m2 FEW
15:34 21.1 °C 14.3 °C 1011.1 hPa South 11.1 km/h 11.1 km/h 65 % 0.0 mm 67.0 W/m2 FEW
15:39 21.1 °C 14.5 °C 1011.1 hPa WSW 27.8 km/h 27.8 km/h 66 % 0.0 mm 63.0 W/m2 SCT
15:44 20.0 °C 14.3 °C 1011.4 hPa SW 31.5 km/h 31.5 km/h 70 % 0.0 mm 25.0 W/m2 SCT
15:49 19.4 °C 14.7 °C 1011.4 hPa SW 22.2 km/h 22.2 km/h 74 % 0.0 mm 9.0 W/m2 BKN
15:50 18.9 °C 14.2 °C 1011.7 hPa SSW 20.4 km/h 20.4 km/h 74 % 0.0 mm 7.0 W/m2 BKN
15:55 18.3 °C 14.0 °C 1012.1 hPa SW 25.7 km/h 25.7 km/h 76 % 0.3 mm 0.0 W/m2 RA
16:00 17.8 °C 14.3 °C 1011.7 hPa WSW 18.5 km/h 18.5 km/h 80 % 1.5 mm 7.0 W/m2 RA
16:05 17.2 °C 14.1 °C 1011.7 hPa SSE 18.5 km/h 18.5 km/h 82 % 1.5 mm 7.0 W/m2 RA
16:10 16.7 °C 13.9 °C 1011.7 hPa Calm     84 % 1.5 mm 7.0 W/m2 BKN
16:15 16.7 °C 13.8 °C 1011.4 hPa SSE 20.4 km/h 20.4 km/h 83 % 2.0 mm 5.0 W/m2 RA
16:20 16.1 °C 13.4 °C 1011.4 hPa SSE 18.5 km/h 18.5 km/h 84 % 2.3 mm 5.0 W/m2 RA
16:25 16.1 °C 13.6 °C 1011.1 hPa South 8.0 km/h 8.0 km/h 85 % 2.3 mm 5.0 W/m2 RA
16:30 15.6 °C 13.1 °C 1011.4 hPa SSE 5.6 km/h 5.6 km/h 85 % 2.5 mm 5.0 W/m2 RA
16:35 15.6 °C 13.2 °C 1011.4 hPa Calm     86 % 2.8 mm 5.0 W/m2 RA
16:40 15.6 °C 13.2 °C 1011.1 hPa Calm     86 % 3.0 mm 7.0 W/m2 RA
16:45 15.0 °C 12.8 °C 1010.7 hPa Calm     87 % 3.3 mm 9.0 W/m2 RA
16:47 15.0 °C 12.8 °C 1010.7 hPa Calm     87 % 3.3 mm 11.0 W/m2 RA
16:52 15.0 °C 12.8 °C 1010.7 hPa Calm     87 % 3.3 mm 12.0 W/m2 BKN
16:57 15.0 °C 12.8 °C 1010.7 hPa Calm     87 % 2.3 mm 19.0 W/m2 RA
17:02 15.0 °C 13.0 °C 1010.4 hPa Calm     88 % 2.0 mm 26.0 W/m2 BKN
17:07 15.0 °C 13.0 °C 1010.4 hPa Calm     88 % 1.8 mm 37.0 W/m2 BKN
17:12 15.0 °C 13.0 °C 1010.4 hPa Calm     88 % 1.5 mm 53.0 W/m2 BKN
17:18 15.0 °C 13.0 °C 1010.4 hPa Calm     88 % 1.5 mm 72.0 W/m2 SCT
17:23 15.0 °C 13.2 °C 1010.4 hPa Calm     89 % 1.3 mm 74.0 W/m2 FEW
17:28 15.0 °C 13.2 °C 1010.4 hPa Calm     89 % 1.0 mm 69.0 W/m2 FEW
17:33 15.6 °C 13.7 °C 1010.4 hPa Calm     89 % 0.5 mm 46.0 W/m2 FEW
17:38 15.0 °C 13.0 °C 1010.4 hPa East 7.4 km/h 7.4 km/h 88 % 0.5 mm 28.0 W/m2 SCT
17:43 15.0 °C 13.0 °C 1010.4 hPa Calm     88 % 0.5 mm 23.0 W/m2 BKN
17:48 15.0 °C 13.0 °C 1010.4 hPa Calm   0.3 km/h 88 % 0.3 mm 14.0 W/m2 BKN
17:53 15.0 °C 13.0 °C 1010.7 hPa ENE 14.8 km/h 14.8 km/h 88 % 0.3 mm 9.0 W/m2 BKN
17:58 15.0 °C 12.8 °C 1010.7 hPa ENE 25.9 km/h 25.9 km/h 87 % 0.3 mm 7.0 W/m2 RA
18:03 15.0 °C 12.5 °C 1010.7 hPa ENE 22.2 km/h 22.2 km/h 85 % 0.3 mm 7.0 W/m2 BKN
18:08 15.0 °C 12.7 °C 1010.4 hPa ENE 18.5 km/h 18.5 km/h 86 % 0.3 mm 7.0 W/m2 BKN
18:13 15.0 °C 13.0 °C 1010.4 hPa ENE 16.7 km/h 16.7 km/h 88 % 0.3 mm 7.0 W/m2 BKN
18:18 15.0 °C 13.0 °C 1010.4 hPa NE 9.3 km/h 9.3 km/h 88 % 0.3 mm 9.0 W/m2 BKN
18:23 15.0 °C 13.0 °C 1010.0 hPa NE 11.1 km/h 11.1 km/h 88 % 0.3 mm 12.0 W/m2 BKN
18:28 15.0 °C 13.0 °C 1010.0 hPa Calm     88 % 0.3 mm 16.0 W/m2 BKN
18:33 15.0 °C 13.0 °C 1010.0 hPa Calm     88 % 0.3 mm 19.0 W/m2 BKN
18:38 15.0 °C 12.8 °C 1010.0 hPa Calm     87 % 0.3 mm 21.0 W/m2 BKN
18:43 15.0 °C 12.8 °C 1010.0 hPa Calm     87 % 0.3 mm 23.0 W/m2 BKN
18:48 15.0 °C 12.8 °C 1010.0 hPa Calm     87 % 0.3 mm 23.0 W/m2 BKN
18:53 15.0 °C 13.0 °C 1010.0 hPa Calm     88 % 0.3 mm 16.0 W/m2 BKN
18:58 15.0 °C 13.0 °C 1010.4 hPa Calm     88 % 0.0 mm 12.0 W/m2 BKN
19:03 15.0 °C 13.0 °C 1010.4 hPa Calm     88 % 0.0 mm 5.0 W/m2 OVC
19:08 15.0 °C 13.2 °C 1010.4 hPa Calm     89 % 0.0 mm 5.0 W/m2 OVC
19:13 14.4 °C 12.7 °C 1010.4 hPa Calm     89 % 0.0 mm 0.0 W/m2 OVC
19:18 14.4 °C 12.7 °C 1010.4 hPa Calm     89 % 0.0 mm 0.0 W/m2 OVC
19:23 14.4 °C 12.7 °C 1010.7 hPa Calm     89 % 0.0 mm 0.0 W/m2 OVC
19:28 14.4 °C 12.7 °C 1010.7 hPa Calm     89 % 0.0 mm 0.0 W/m2 CLR
19:33 14.4 °C 12.7 °C 1010.7 hPa Calm     89 % 0.0 mm 0.0 W/m2 CLR
19:38 14.4 °C 12.7 °C 1010.7 hPa Calm     89 % 0.0 mm 0.0 W/m2 CLR
19:43 14.4 °C 12.8 °C 1010.7 hPa Calm     90 % 0.0 mm 0.0 W/m2 CLR
19:48 14.4 °C 12.8 °C 1010.7 hPa Calm     90 % 0.0 mm 0.0 W/m2 CLR
19:53 14.4 °C 12.8 °C 1010.7 hPa Calm     90 % 0.0 mm 0.0 W/m2 CLR
19:58 14.4 °C 12.8 °C 1010.7 hPa Calm     90 % 0.0 mm 0.0 W/m2 CLR
20:08 13.9 °C 12.3 °C 1010.7 hPa Calm     90 % 0.0 mm 0.0 W/m2 CLR
20:13 13.9 °C 12.3 °C 1010.7 hPa Calm     90 % 0.0 mm 0.0 W/m2 CLR
20:18 13.9 °C 12.4 °C 1010.7 hPa Calm     91 % 0.0 mm 0.0 W/m2 CLR
20:23 13.9 °C 12.4 °C 1011.1 hPa Calm     91 % 0.0 mm 0.0 W/m2 CLR
20:28 14.4 °C 13.0 °C 1011.1 hPa Calm     91 % 0.0 mm 0.0 W/m2 CLR
20:33 14.4 °C 13.0 °C 1011.1 hPa SW 7.4 km/h 7.4 km/h 91 % 0.0 mm 0.0 W/m2 CLR
20:38 14.4 °C 13.0 °C 1011.4 hPa SSE 7.4 km/h 7.4 km/h 91 % 0.0 mm 0.0 W/m2 CLR
20:43 14.4 °C 12.8 °C 1011.4 hPa South 13.0 km/h 13.0 km/h 90 % 0.0 mm 0.0 W/m2 CLR
20:48 14.4 °C 12.8 °C 1011.4 hPa Calm     90 % 0.0 mm 0.0 W/m2 CLR
20:53 14.4 °C 12.8 °C 1011.7 hPa Calm     90 % 0.0 mm 0.0 W/m2 CLR
20:58 14.4 °C 12.8 °C 1011.7 hPa Calm     90 % 0.0 mm 0.0 W/m2 CLR
21:03 14.4 °C 12.8 °C 1011.7 hPa Calm     90 % 0.0 mm 0.0 W/m2 CLR
21:08 14.4 °C 12.8 °C 1011.7 hPa Calm     90 % 0.0 mm 0.0 W/m2 CLR
21:13 14.4 °C 12.8 °C 1011.7 hPa Calm     90 % 0.0 mm 0.0 W/m2 CLR
21:18 13.9 °C 12.3 °C 1011.7 hPa Calm     90 % 0.0 mm 0.0 W/m2 CLR
21:23 14.4 °C 12.8 °C 1012.1 hPa South 7.4 km/h 7.4 km/h 90 % 0.0 mm 0.0 W/m2 CLR
21:28 14.4 °C 12.8 °C 1012.1 hPa South 18.5 km/h 18.5 km/h 90 % 0.0 mm 0.0 W/m2 CLR
21:33 14.4 °C 12.7 °C 1012.4 hPa SSE 18.5 km/h 18.5 km/h 89 % 0.0 mm 0.0 W/m2 CLR
21:38 14.4 °C 12.7 °C 1012.4 hPa South 18.5 km/h 18.5 km/h 89 % 0.0 mm 0.0 W/m2 CLR
21:43 15.0 °C 13.2 °C 1012.4 hPa South 13.0 km/h 13.0 km/h 89 % 0.0 mm 0.0 W/m2 CLR
21:48 15.0 °C 13.0 °C 1012.4 hPa South 7.4 km/h 7.4 km/h 88 % 0.0 mm 0.0 W/m2 CLR
21:53 15.0 °C 13.0 °C 1012.4 hPa Calm     88 % 0.0 mm 0.0 W/m2 CLR
21:58 15.0 °C 13.0 °C 1012.4 hPa Calm     88 % 0.0 mm 0.0 W/m2 CLR
22:03 14.4 °C 12.5 °C 1012.4 hPa Calm     88 % 0.0 mm 0.0 W/m2 CLR
22:08 14.4 °C 12.5 °C 1012.8 hPa Calm     88 % 0.0 mm 0.0 W/m2 CLR
22:13 14.4 °C 12.5 °C 1012.8 hPa Calm     88 % 0.0 mm 0.0 W/m2 CLR
22:18 14.4 °C 12.7 °C 1012.8 hPa Calm     89 % 0.0 mm 0.0 W/m2 CLR
22:23 14.4 °C 12.7 °C 1012.8 hPa Calm     89 % 0.0 mm 0.0 W/m2 CLR
22:28 14.4 °C 12.7 °C 1013.1 hPa Calm     89 % 0.0 mm 0.0 W/m2 CLR
22:33 14.4 °C 12.7 °C 1012.8 hPa Calm     89 % 0.0 mm 0.0 W/m2 CLR
22:39 14.4 °C 12.7 °C 1013.1 hPa Calm     89 % 0.0 mm 0.0 W/m2 CLR
22:44 13.9 °C 12.1 °C 1013.1 hPa Calm     89 % 0.0 mm 0.0 W/m2 CLR
22:49 13.9 °C 11.9 °C 1013.1 hPa Calm     88 % 0.0 mm 0.0 W/m2 CLR
22:54 13.9 °C 11.9 °C 1013.1 hPa Calm     88 % 0.0 mm 0.0 W/m2 CLR
22:59 13.9 °C 11.9 °C 1013.1 hPa Calm     88 % 0.0 mm 0.0 W/m2 CLR
23:04 13.9 °C 11.9 °C 1013.1 hPa Calm     88 % 0.0 mm 0.0 W/m2 CLR
23:09 13.9 °C 11.9 °C 1013.1 hPa Calm     88 % 0.0 mm 0.0 W/m2 CLR
23:14 13.9 °C 11.9 °C 1013.1 hPa Calm     88 % 0.0 mm 0.0 W/m2 CLR
23:19 13.9 °C 11.9 °C 1013.1 hPa Calm     88 % 0.0 mm 0.0 W/m2 CLR
23:24 13.9 °C 11.9 °C 1013.4 hPa Calm     88 % 0.0 mm 0.0 W/m2 CLR
23:29 13.9 °C 11.9 °C 1013.1 hPa Calm     88 % 0.0 mm 0.0 W/m2 CLR
23:34 13.9 °C 11.9 °C 1013.1 hPa Calm     88 % 0.0 mm 0.0 W/m2 CLR
23:39 13.9 °C 11.9 °C 1013.1 hPa Calm     88 % 0.0 mm 0.0 W/m2 CLR
23:44 13.3 °C 11.4 °C 1013.1 hPa Calm     88 % 0.0 mm 0.0 W/m2 CLR
23:49 13.3 °C 11.4 °C 1013.1 hPa Calm     88 % 0.0 mm 0.0 W/m2 CLR
23:55 13.3 °C 11.4 °C 1013.1 hPa Calm     88 % 0.0 mm 0.0 W/m2 CLR
Lo Temps de Massalio
Compliments of Weather Underground - 1.25 mb